Time;durP1;ratioP1;P1;durP2;ratioP2;P2;SDS_P1;SDS_P2;PMS_P1;PMS_P2;Temp;Humidity;BMP_temperature;BMP_pressure;BME280_temperature;BME280_humidity;BME280_pressure;Samples;Min_cycle;Max_cycle;Signal;HPM_P1;HPM_P2
2022/04/16 00:00:50;;;;;;;2.25;2.05;;;11.40;78.60;;;;;;5094351;28;20131;-78
2022/04/16 00:03:16;;;;;;;3.53;2.30;;;11.40;78.60;;;;;;5094197;28;20081;-78
2022/04/16 00:05:42;;;;;;;4.75;2.50;;;11.40;78.60;;;;;;5094241;28;20388;-77
2022/04/16 00:08:08;;;;;;;2.30;2.10;;;11.40;78.80;;;;;;5094302;28;20020;-76
2022/04/16 00:10:35;;;;;;;2.55;2.20;;;11.40;78.70;;;;;;5093993;28;20024;-76
2022/04/16 00:13:01;;;;;;;3.53;2.05;;;11.40;78.90;;;;;;5094305;28;20059;-77
2022/04/16 00:15:26;;;;;;;2.92;2.30;;;11.40;78.70;;;;;;5075241;28;20032;-77
2022/04/16 00:17:53;;;;;;;2.35;2.15;;;11.40;78.60;;;;;;5094322;28;20029;-77
2022/04/16 00:20:19;;;;;;;3.63;2.20;;;11.40;78.70;;;;;;5093535;28;20024;-79
2022/04/16 00:22:44;;;;;;;2.70;2.50;;;11.40;79.20;;;;;;5094040;28;20380;-77
2022/04/16 00:25:11;;;;;;;2.38;2.17;;;11.40;79.10;;;;;;5094281;28;20043;-78
2022/04/16 00:27:37;;;;;;;2.90;2.60;;;11.30;79.30;;;;;;5093405;28;20020;-78
2022/04/16 00:30:04;;;;;;;2.50;2.30;;;11.30;79.30;;;;;;5094170;28;20377;-78
2022/04/16 00:32:29;;;;;;;2.72;2.53;;;11.30;79.60;;;;;;5093372;28;20136;-77
2022/04/16 00:34:55;;;;;;;2.60;2.20;;;11.30;80.00;;;;;;5093841;28;20475;-77
2022/04/16 00:37:21;;;;;;;2.50;2.25;;;11.20;79.80;;;;;;5092954;28;20051;-78
2022/04/16 00:39:46;;;;;;;3.90;2.22;;;11.30;79.60;;;;;;5093946;28;20024;-78
2022/04/16 00:42:12;;;;;;;2.92;2.60;;;11.30;79.80;;;;;;5093526;28;20465;-78
2022/04/16 00:44:37;;;;;;;2.55;2.35;;;11.30;80.20;;;;;;5093182;28;20032;-78
2022/04/16 00:47:04;;;;;;;4.78;2.58;;;11.30;80.00;;;;;;5075245;28;20035;-78
2022/04/16 00:49:30;;;;;;;2.70;2.45;;;11.30;79.90;;;;;;5092840;28;20059;-79
2022/04/16 00:51:56;;;;;;;2.70;2.40;;;11.30;79.70;;;;;;5093655;28;20035;-79
2022/04/16 00:54:22;;;;;;;3.15;2.50;;;11.30;78.70;;;;;;5074717;28;20422;-80
2022/04/16 00:56:48;;;;;;;3.05;2.20;;;11.30;78.90;;;;;;5093472;28;20024;-79
2022/04/16 00:59:13;;;;;;;2.90;2.38;;;11.30;78.70;;;;;;5093053;28;20107;-79
2022/04/16 01:01:39;;;;;;;2.60;2.40;;;11.20;79.00;;;;;;5074528;28;20178;-78
2022/04/16 01:04:05;;;;;;;2.55;2.28;;;11.20;79.30;;;;;;5075281;28;20032;-78
2022/04/16 01:06:42;;;;;;;3.78;2.53;;;11.20;79.10;;;;;;5092326;28;20051;-78
2022/04/16 01:09:08;;;;;;;2.65;2.45;;;11.10;79.40;;;;;;5093189;28;20020;-78
2022/04/16 01:11:34;;;;;;;2.88;2.55;;;11.20;79.70;;;;;;5074141;28;20024;-78
2022/04/16 01:14:01;;;;;;;2.55;2.35;;;11.10;79.80;;;;;;5092587;28;20027;-78
2022/04/16 01:16:30;;;;;;;2.75;2.45;;;11.20;80.30;;;;;;5074129;28;20023;-78
2022/04/16 01:18:56;;;;;;;3.78;2.83;;;11.20;80.30;;;;;;5092874;28;20103;-78
2022/04/16 01:21:22;;;;;;;3.63;2.90;;;11.20;79.90;;;;;;5093011;28;20048;-77
2022/04/16 01:23:48;;;;;;;3.45;2.65;;;11.20;80.10;;;;;;5074746;28;20028;-78
2022/04/16 01:26:14;;;;;;;4.07;3.00;;;11.10;80.20;;;;;;5092847;28;20032;-79
2022/04/16 01:28:40;;;;;;;3.20;2.90;;;11.10;80.50;;;;;;5092254;28;20055;-77
2022/04/16 01:31:06;;;;;;;4.57;3.40;;;11.10;80.80;;;;;;5074196;28;20032;-78
2022/04/16 01:33:32;;;;;;;3.15;2.85;;;11.10;81.00;;;;;;5091837;28;20024;-79
2022/04/16 01:35:58;;;;;;;3.53;3.10;;;11.00;81.00;;;;;;5092802;28;20024;-79
2022/04/16 01:38:27;;;;;;;3.13;2.83;;;11.10;81.80;;;;;;5074446;28;20059;-79
2022/04/16 01:41:11;;;;;;;3.33;2.92;;;11.10;81.60;;;;;;5074384;28;20032;-78
2022/04/16 01:43:37;;;;;;;3.30;3.00;;;11.00;81.70;;;;;;5091533;28;20052;-80
2022/04/16 01:46:06;;;;;;;3.53;3.22;;;11.00;82.00;;;;;;5092453;28;20036;-78
2022/04/16 01:48:32;;;;;;;3.38;3.05;;;11.00;82.20;;;;;;5089716;28;20016;-80
2022/04/16 01:50:58;;;;;;;4.03;3.53;;;11.00;82.20;;;;;;5054260;28;20479;-80
2022/04/16 01:53:23;;;;;;;3.38;2.70;;;11.00;81.90;;;;;;5072059;28;20024;-80
2022/04/16 01:55:49;;;;;;;3.17;2.88;;;10.90;82.10;;;;;;5071723;28;20078;-80
2022/04/16 01:58:16;;;;;;;3.70;3.15;;;10.90;82.50;;;;;;5071945;28;20024;-80
2022/04/16 02:00:41;;;;;;;3.88;3.47;;;11.00;82.70;;;;;;5070237;28;20053;-80
2022/04/16 02:03:10;;;;;;;3.63;3.20;;;11.00;82.60;;;;;;5071896;28;20028;-80
2022/04/16 02:05:36;;;;;;;3.80;3.42;;;11.00;82.40;;;;;;5071312;28;20029;-80
2022/04/16 02:08:01;;;;;;;3.20;2.88;;;11.00;82.40;;;;;;5072101;28;20028;-79
2022/04/16 02:10:27;;;;;;;3.20;2.95;;;11.00;82.60;;;;;;5053247;28;20035;-81
2022/04/16 02:12:53;;;;;;;3.08;2.78;;;11.00;82.30;;;;;;5071891;28;20108;-80
2022/04/16 02:15:18;;;;;;;3.28;2.83;;;11.00;82.50;;;;;;5071938;28;20401;-80
2022/04/16 02:17:44;;;;;;;3.33;3.03;;;11.00;82.50;;;;;;5071293;28;20419;-80
2022/04/16 02:20:10;;;;;;;3.35;3.05;;;11.00;82.20;;;;;;5053887;28;20420;-80
2022/04/16 02:25:33;;;;;;;3.40;3.10;;;10.90;83.00;;;;;;5071181;28;20044;-80
2022/04/16 02:27:58;;;;;;;3.42;2.95;;;10.90;82.80;;;;;;5053757;28;20492;-81
2022/04/16 02:30:24;;;;;;;3.65;3.10;;;10.90;82.90;;;;;;5071702;28;20028;-82
2022/04/16 02:32:54;;;;;;;3.10;2.83;;;10.80;83.20;;;;;;5053121;28;20036;-81
2022/04/16 02:35:21;;;;;;;3.72;3.33;;;10.90;83.50;;;;;;5053933;28;20445;-81
2022/04/16 02:37:47;;;;;;;3.85;3.20;;;10.90;83.30;;;;;;5071015;28;20111;-80
2022/04/16 02:40:14;;;;;;;3.25;2.95;;;10.80;83.40;;;;;;5071642;28;20035;-80
2022/04/16 02:42:41;;;;;;;3.47;3.17;;;10.90;83.80;;;;;;5070579;28;20393;-81
2022/04/16 02:47:55;;;;;;;3.13;2.83;;;10.80;84.20;;;;;;5071549;28;20032;-81
2022/04/16 02:50:25;;;;;;;3.60;3.30;;;10.80;84.50;;;;;;5053463;28;20042;-81
2022/04/16 02:52:55;;;;;;;3.35;3.05;;;10.80;84.60;;;;;;5052883;28;20033;-81
2022/04/16 02:55:22;;;;;;;4.47;3.40;;;10.80;85.00;;;;;;5071641;28;20552;-80
2022/04/16 02:57:49;;;;;;;3.45;3.10;;;10.80;85.10;;;;;;5070610;28;20035;-81
2022/04/16 03:00:15;;;;;;;3.20;2.90;;;10.80;85.60;;;;;;5071105;28;20054;-80
2022/04/16 03:02:41;;;;;;;3.63;3.28;;;10.90;85.90;;;;;;5070406;28;20395;-81
2022/04/16 03:05:08;;;;;;;4.05;3.33;;;10.80;86.00;;;;;;5053330;28;20039;-81
2022/04/16 03:07:37;;;;;;;3.40;3.10;;;10.90;86.20;;;;;;5070909;28;20473;-82
2022/04/16 03:10:05;;;;;;;3.00;2.70;;;10.80;86.00;;;;;;5071330;28;20024;-81
2022/04/16 03:12:49;;;;;;;3.08;2.78;;;10.80;86.40;;;;;;5073795;28;20032;-80
2022/04/16 03:18:01;;;;;;;5.20;3.30;;;10.80;87.00;;;;;;5075078;28;20035;-81
2022/04/16 03:20:29;;;;;;;3.13;2.78;;;10.80;87.30;;;;;;5093218;28;20028;-79
2022/04/16 03:22:55;;;;;;;3.50;3.15;;;10.80;87.20;;;;;;5094578;28;20024;-80
2022/04/16 03:25:21;;;;;;;3.75;3.20;;;10.70;87.50;;;;;;5095128;28;20088;-80
2022/04/16 03:27:47;;;;;;;3.40;3.10;;;10.80;87.60;;;;;;5094632;28;20055;-80
2022/04/16 03:30:13;;;;;;;4.03;3.63;;;10.80;87.80;;;;;;5077089;28;20020;-80
2022/04/16 03:32:39;;;;;;;3.47;3.10;;;10.80;87.80;;;;;;5094409;28;20074;-80
2022/04/16 03:35:06;;;;;;;3.38;3.08;;;10.70;88.30;;;;;;5076710;28;20469;-79
2022/04/16 03:37:36;;;;;;;3.22;2.92;;;10.80;88.50;;;;;;5094737;28;20029;-80
2022/04/16 03:40:03;;;;;;;3.35;3.05;;;10.80;89.10;;;;;;5076752;28;20532;-80
2022/04/16 03:42:28;;;;;;;3.78;3.15;;;10.70;89.30;;;;;;5095128;28;20039;-79
2022/04/16 03:44:54;;;;;;;3.55;3.25;;;10.70;89.60;;;;;;5076025;28;20028;-79
2022/04/16 03:47:19;;;;;;;2.80;2.60;;;10.70;90.00;;;;;;5076591;28;20024;-79
2022/04/16 03:49:45;;;;;;;2.97;2.70;;;10.60;90.10;;;;;;5093774;28;20107;-79
2022/04/16 03:52:11;;;;;;;4.03;3.20;;;10.60;89.60;;;;;;5063302;28;20116;-79
2022/04/16 04:00:05;;;;;;;3.28;2.70;;;10.60;90.00;;;;;;5074095;28;20200;-79
2022/04/16 04:02:38;;;;;;;3.92;3.15;;;10.60;90.00;;;;;;5074082;28;20381;-79
2022/04/16 04:05:06;;;;;;;4.65;3.20;;;10.60;90.30;;;;;;5057486;28;20031;-79
2022/04/16 04:07:32;;;;;;;3.65;3.03;;;10.60;90.20;;;;;;5074192;28;20016;-79
2022/04/16 04:09:58;;;;;;;4.05;3.20;;;10.60;90.20;;;;;;5073497;28;20052;-79
2022/04/16 04:12:24;;;;;;;3.22;2.92;;;10.60;90.20;;;;;;5074189;28;20066;-80
2022/04/16 04:14:49;;;;;;;3.50;3.20;;;10.60;90.20;;;;;;5055425;28;20024;-79
2022/04/16 04:17:15;;;;;;;3.92;3.13;;;10.60;90.30;;;;;;5073760;28;20073;-79
2022/04/16 04:19:43;;;;;;;3.50;3.20;;;10.60;90.20;;;;;;5073619;28;20068;-78
2022/04/16 04:22:11;;;;;;;3.80;3.50;;;10.60;90.20;;;;;;5073658;28;20496;-80
2022/04/16 04:24:38;;;;;;;4.55;3.85;;;10.60;90.20;;;;;;5054451;28;20555;-82
2022/04/16 04:27:05;;;;;;;3.72;3.10;;;10.60;90.30;;;;;;5073924;28;20016;-77
2022/04/16 04:29:30;;;;;;;3.67;3.38;;;10.60;90.40;;;;;;5073785;28;20032;-78
2022/04/16 04:31:57;;;;;;;4.30;3.90;;;10.60;90.60;;;;;;5073056;28;20032;-79
2022/04/16 04:34:23;;;;;;;5.32;4.80;;;10.60;90.60;;;;;;5073642;28;20024;-78
2022/04/16 04:36:48;;;;;;;6.57;5.00;;;10.60;90.40;;;;;;5054951;28;20024;-79
2022/04/16 04:39:14;;;;;;;6.13;5.20;;;10.50;90.50;;;;;;5073297;28;20461;-78
2022/04/16 04:41:43;;;;;;;5.80;5.20;;;10.40;90.60;;;;;;5072941;28;20028;-78
2022/04/16 04:44:13;;;;;;;5.57;5.07;;;10.50;90.70;;;;;;5055480;28;20105;-78
2022/04/16 04:46:40;;;;;;;5.20;4.70;;;10.50;90.80;;;;;;5072871;28;20035;-78
2022/04/16 04:49:09;;;;;;;5.10;4.60;;;10.50;90.70;;;;;;5073301;28;20033;-78
2022/04/16 04:51:39;;;;;;;6.25;5.00;;;10.50;90.60;;;;;;5055194;28;20024;-76
2022/04/16 04:54:06;;;;;;;5.68;5.00;;;10.60;90.50;;;;;;5073341;28;20036;-77
2022/04/16 04:56:32;;;;;;;5.72;5.13;;;10.50;90.50;;;;;;5055371;28;20356;-77
2022/04/16 04:58:57;;;;;;;5.28;4.78;;;10.50;90.00;;;;;;5072659;28;20148;-79
2022/04/16 05:01:23;;;;;;;5.55;5.05;;;10.50;89.90;;;;;;5072777;28;20354;-78
2022/04/16 05:03:49;;;;;;;5.43;4.93;;;10.50;89.80;;;;;;5072453;28;20385;-79
2022/04/16 05:06:15;;;;;;;5.65;5.13;;;10.60;89.20;;;;;;5072792;28;20052;-79
2022/04/16 05:08:41;;;;;;;6.32;4.90;;;10.60;88.40;;;;;;5054565;28;20083;-79
2022/04/16 05:11:06;;;;;;;6.55;5.20;;;10.60;87.80;;;;;;5072588;28;20028;-78
2022/04/16 05:13:32;;;;;;;5.95;5.07;;;10.50;87.70;;;;;;5072872;28;20024;-79
2022/04/16 05:15:58;;;;;;;5.00;4.50;;;10.50;87.20;;;;;;5082682;28;20017;-78
2022/04/16 05:18:24;;;;;;;5.85;5.30;;;10.50;87.50;;;;;;5092765;28;20031;-78
2022/04/16 05:20:49;;;;;;;5.20;4.70;;;10.40;87.40;;;;;;5092333;28;20031;-78
2022/04/16 05:23:15;;;;;;;5.18;4.57;;;10.40;87.90;;;;;;5092969;28;20402;-77
2022/04/16 05:25:41;;;;;;;5.25;4.75;;;10.40;87.30;;;;;;5074157;28;20035;-82
2022/04/16 05:28:09;;;;;;;4.93;4.43;;;10.50;86.50;;;;;;5074571;28;20081;-77
2022/04/16 05:30:44;;;;;;;5.30;4.25;;;10.40;86.20;;;;;;5092966;28;20445;-78
2022/04/16 05:35:55;;;;;;;4.60;4.10;;;10.40;86.20;;;;;;5091866;28;20407;-78
2022/04/16 05:38:21;;;;;;;4.18;3.67;;;10.50;85.80;;;;;;5092310;28;20020;-78
2022/04/16 05:40:46;;;;;;;3.47;3.17;;;10.50;85.70;;;;;;5092271;28;20031;-78
2022/04/16 05:43:12;;;;;;;4.00;3.60;;;10.40;84.70;;;;;;5092202;28;20032;-79
2022/04/16 05:45:37;;;;;;;7.07;4.07;;;10.40;85.00;;;;;;5092011;28;20101;-79
2022/04/16 05:48:03;;;;;;;3.47;3.17;;;10.40;85.00;;;;;;5069895;28;20055;-79
2022/04/16 05:50:29;;;;;;;3.63;3.33;;;10.40;84.80;;;;;;5072437;28;20384;-79
2022/04/16 05:52:54;;;;;;;3.25;2.95;;;10.40;85.40;;;;;;5091144;28;20311;-78
2022/04/16 05:55:20;;;;;;;5.47;3.80;;;10.40;85.10;;;;;;5092495;28;20380;-78
2022/04/16 05:57:46;;;;;;;4.78;3.53;;;10.40;84.00;;;;;;5073521;28;20026;-79
2022/04/16 06:00:13;;;;;;;3.78;3.40;;;10.40;84.20;;;;;;5086806;28;20135;-78
2022/04/16 06:02:40;;;;;;;5.18;4.05;;;10.40;84.00;;;;;;5073406;28;20345;-77
2022/04/16 06:05:06;;;;;;;4.95;4.00;;;10.40;84.50;;;;;;5072690;28;20039;-78
2022/04/16 06:07:33;;;;;;;4.20;3.80;;;10.40;84.50;;;;;;5091089;28;20048;-79
2022/04/16 06:09:59;;;;;;;4.53;4.10;;;10.50;85.00;;;;;;5091195;28;20020;-79
2022/04/16 06:12:26;;;;;;;3.70;3.40;;;10.50;85.20;;;;;;5092127;28;20031;-79
2022/04/16 06:14:53;;;;;;;4.25;3.53;;;10.50;85.60;;;;;;5091633;28;20020;-78
2022/04/16 06:17:19;;;;;;;3.50;3.20;;;10.50;85.20;;;;;;5063184;28;20016;-79
2022/04/16 06:19:45;;;;;;;3.17;2.88;;;10.50;84.50;;;;;;5071249;28;20111;-82
2022/04/16 06:22:11;;;;;;;4.18;2.67;;;10.50;83.20;;;;;;5053481;28;20063;-79
2022/04/16 06:24:41;;;;;;;4.50;2.97;;;10.50;83.50;;;;;;5053693;28;20063;-79
2022/04/16 06:27:07;;;;;;;3.28;2.42;;;10.50;83.10;;;;;;5071247;28;20031;-79
2022/04/16 06:29:32;;;;;;;3.22;2.30;;;10.50;82.40;;;;;;5072255;28;20119;-80
2022/04/16 06:31:58;;;;;;;3.55;2.22;;;10.60;82.30;;;;;;5052933;28;20112;-79
2022/04/16 06:34:24;;;;;;;2.45;2.25;;;10.70;82.50;;;;;;5071941;28;20350;-79
2022/04/16 06:36:50;;;;;;;2.50;2.30;;;10.70;81.20;;;;;;5071301;28;20028;-79
2022/04/16 06:39:16;;;;;;;2.33;2.08;;;10.70;80.40;;;;;;5071735;28;20107;-79
2022/04/16 06:41:41;;;;;;;2.30;2.10;;;10.60;80.00;;;;;;5053757;28;20032;-80
2022/04/16 06:44:07;;;;;;;2.20;2.00;;;10.60;79.80;;;;;;5071068;28;20037;-80
2022/04/16 06:46:33;;;;;;;2.97;2.00;;;10.50;79.80;;;;;;5072670;28;20024;-80
2022/04/16 06:48:58;;;;;;;2.42;2.10;;;10.60;80.00;;;;;;5075203;28;20346;-80
2022/04/16 06:51:24;;;;;;;2.78;2.53;;;10.60;80.20;;;;;;5075762;28;20472;-79
2022/04/16 06:53:51;;;;;;;2.70;2.50;;;10.60;80.70;;;;;;5075260;28;20043;-80
2022/04/16 06:56:16;;;;;;;2.58;2.38;;;10.60;80.90;;;;;;5057558;28;20416;-80
2022/04/16 06:58:42;;;;;;;5.00;2.72;;;10.70;80.00;;;;;;5076068;28;20036;-79
2022/04/16 07:03:52;;;;;;;2.97;2.67;;;10.70;80.20;;;;;;5074857;28;20059;-79
2022/04/16 07:06:18;;;;;;;2.60;2.38;;;10.80;81.00;;;;;;5057654;28;20034;-80
2022/04/16 07:08:44;;;;;;;4.50;2.63;;;12.00;79.30;;;;;;5076960;28;20048;-80
2022/04/16 07:11:09;;;;;;;2.70;2.35;;;12.20;74.10;;;;;;5077152;28;20024;-79
2022/04/16 07:13:35;;;;;;;2.20;2.00;;;12.60;74.10;;;;;;5085661;28;20370;-79
2022/04/16 07:16:00;;;;;;;2.28;1.67;;;12.60;70.20;;;;;;5076096;28;20026;-80
2022/04/16 07:18:26;;;;;;;1.40;1.23;;;12.40;69.60;;;;;;5083057;28;20427;-80
2022/04/16 07:20:52;;;;;;;1.30;1.20;;;12.20;68.30;;;;;;5084238;28;20024;-77
2022/04/16 07:23:18;;;;;;;1.58;1.20;;;12.10;68.00;;;;;;5075307;28;20075;-80
2022/04/16 07:25:43;;;;;;;1.02;0.95;;;12.00;68.40;;;;;;5075491;28;20031;-80
2022/04/16 07:28:11;;;;;;;1.35;1.25;;;11.90;68.60;;;;;;5056332;28;20276;-80
2022/04/16 07:30:37;;;;;;;2.20;0.98;;;11.80;68.70;;;;;;5057158;28;20020;-80
2022/04/16 07:33:02;;;;;;;1.17;1.08;;;11.70;68.70;;;;;;5056166;28;20043;-80
2022/04/16 07:35:28;;;;;;;1.30;1.20;;;11.50;69.70;;;;;;5057036;28;20034;-81
2022/04/16 07:37:57;;;;;;;1.17;1.08;;;11.40;70.40;;;;;;5056601;28;20020;-81
2022/04/16 07:40:24;;;;;;;1.23;1.00;;;11.30;70.60;;;;;;5074858;28;20079;-81
2022/04/16 07:42:50;;;;;;;1.25;1.00;;;11.20;71.20;;;;;;5074680;28;20037;-80
2022/04/16 07:45:16;;;;;;;1.85;1.10;;;11.10;71.60;;;;;;5074646;28;20111;-81
2022/04/16 07:47:42;;;;;;;2.10;1.10;;;11.10;71.70;;;;;;5075105;28;20418;-81
2022/04/16 07:50:08;;;;;;;1.48;1.27;;;11.00;71.70;;;;;;5056094;28;20458;-80
2022/04/16 07:52:34;;;;;;;2.95;1.10;;;11.00;72.20;;;;;;5077758;28;20027;-82
2022/04/16 07:55:00;;;;;;;2.55;1.20;;;11.00;71.90;;;;;;5094265;28;20024;-82
2022/04/16 07:57:25;;;;;;;3.22;1.30;;;11.00;72.30;;;;;;5094332;28;20081;-81
2022/04/16 07:59:53;;;;;;;1.75;1.00;;;10.90;72.20;;;;;;5075533;28;20432;-81
2022/04/16 08:02:19;;;;;;;1.50;1.10;;;10.90;72.30;;;;;;5076953;28;20036;-82
2022/04/16 08:04:45;;;;;;;1.60;1.40;;;10.90;72.60;;;;;;5094583;28;20036;-81
2022/04/16 08:07:11;;;;;;;1.42;1.20;;;10.80;72.60;;;;;;5059450;28;20031;-83
2022/04/16 08:09:37;;;;;;;1.35;1.25;;;10.70;72.90;;;;;;5076701;28;20020;-82
2022/04/16 08:12:03;;;;;;;1.55;1.30;;;10.70;73.40;;;;;;5093721;28;20020;-83
2022/04/16 08:14:28;;;;;;;1.55;1.45;;;10.70;74.10;;;;;;5076538;28;20028;-83
2022/04/16 08:16:55;;;;;;;1.20;1.00;;;10.60;74.10;;;;;;5093896;28;20115;-83
2022/04/16 08:19:20;;;;;;;4.70;1.40;;;10.60;74.40;;;;;;5094412;28;20457;-82
2022/04/16 08:21:46;;;;;;;1.52;1.20;;;10.60;74.60;;;;;;5076112;28;20107;-84
2022/04/16 08:24:28;;;;;;;1.50;1.40;;;10.60;74.70;;;;;;5075415;28;20052;-83
2022/04/16 08:26:53;;;;;;;1.25;1.10;;;10.60;74.90;;;;;;5076560;28;20051;-89
2022/04/16 08:29:19;;;;;;;1.85;1.25;;;10.50;75.10;;;;;;5093997;28;20032;-82
2022/04/16 08:31:45;;;;;;;1.40;1.20;;;10.50;75.00;;;;;;5094660;28;20024;-83
2022/04/16 08:34:10;;;;;;;1.20;1.10;;;10.50;75.10;;;;;;5075518;28;20492;-83
2022/04/16 08:36:36;;;;;;;1.48;1.23;;;10.50;75.50;;;;;;5094323;28;20054;-84
2022/04/16 08:39:03;;;;;;;1.20;1.10;;;10.40;75.30;;;;;;5093605;28;20024;-84
2022/04/16 08:41:31;;;;;;;1.30;1.17;;;10.40;75.50;;;;;;5076501;28;20028;-83
2022/04/16 08:43:57;;;;;;;1.50;1.25;;;10.40;76.00;;;;;;5093287;28;20115;-83
2022/04/16 08:46:26;;;;;;;1.70;1.60;;;10.40;75.90;;;;;;5094153;28;20439;-84
2022/04/16 08:48:54;;;;;;;1.27;1.17;;;10.30;76.30;;;;;;5076779;28;20028;-84
2022/04/16 08:51:20;;;;;;;1.65;1.25;;;10.30;76.00;;;;;;5093718;28;20085;-83
2022/04/16 08:53:45;;;;;;;1.40;1.30;;;10.40;76.30;;;;;;5075343;28;20520;-83
2022/04/16 08:56:11;;;;;;;1.35;1.10;;;10.40;76.60;;;;;;5074930;28;20020;-84
2022/04/16 08:58:38;;;;;;;3.35;1.20;;;10.50;76.00;;;;;;5075497;28;20023;-84
2022/04/16 09:01:04;;;;;;;1.48;1.33;;;10.40;75.30;;;;;;5093544;28;20044;-84
2022/04/16 09:03:34;;;;;;;1.17;1.00;;;10.40;75.80;;;;;;5075380;28;20398;-83
2022/04/16 09:06:00;;;;;;;2.80;1.30;;;10.40;75.60;;;;;;5093355;28;20148;-84
2022/04/16 09:08:31;;;;;;;1.40;1.27;;;10.50;75.80;;;;;;5093337;28;20134;-83
2022/04/16 09:11:12;;;;;;;2.28;1.70;;;10.50;76.00;;;;;;5074753;28;20091;-83
2022/04/16 09:13:50;;;;;;;;;;;10.50;76.10;;;;;;5075608;28;20028;-82
2022/04/16 09:16:17;;;;;;;1.83;1.42;;;10.50;76.00;;;;;;5074551;28;19915;-83
2022/04/16 09:18:52;;;;;;;3.10;1.30;;;10.50;76.00;;;;;;5075277;28;20027;-83
2022/04/16 09:21:23;;;;;;;2.38;1.60;;;10.60;75.90;;;;;;5074418;28;20365;-83
2022/04/16 09:23:58;;;;;;;1.60;1.50;;;10.70;76.00;;;;;;5074417;28;20042;-83
2022/04/16 09:26:37;;;;;;;2.00;1.63;;;10.70;75.70;;;;;;5075143;28;20039;-83
2022/04/16 09:29:10;;;;;;;2.72;1.52;;;10.80;75.10;;;;;;5092421;28;20028;-82
2022/04/16 09:31:40;;;;;;;2.70;1.95;;;10.80;74.80;;;;;;5092944;28;20035;-82
2022/04/16 09:34:27;;;;;;;1.98;1.50;;;10.80;74.20;;;;;;5074353;28;20503;-83
2022/04/16 09:36:54;;;;;;;2.72;1.80;;;10.80;75.00;;;;;;5092865;28;20508;-82
2022/04/16 09:39:22;;;;;;;2.67;1.80;;;10.80;74.10;;;;;;5092551;28;20028;-82
2022/04/16 09:41:51;;;;;;;2.33;1.80;;;10.80;73.90;;;;;;5074238;28;20028;-81
2022/04/16 09:44:25;;;;;;;1.92;1.73;;;10.90;73.10;;;;;;5092223;28;20024;-82
2022/04/16 09:46:52;;;;;;;2.75;2.28;;;11.00;73.20;;;;;;5092912;28;20357;-82
2022/04/16 09:49:18;;;;;;;3.58;2.42;;;11.00;71.80;;;;;;5074460;28;20024;-82
2022/04/16 09:51:48;;;;;;;2.80;2.30;;;11.10;69.80;;;;;;5074693;28;20039;-81
2022/04/16 09:54:15;;;;;;;2.23;2.03;;;11.00;68.00;;;;;;5073824;28;20115;-81
2022/04/16 09:56:46;;;;;;;2.38;1.98;;;11.00;68.30;;;;;;5074126;28;20058;-81
2022/04/16 09:59:13;;;;;;;2.17;1.98;;;11.10;67.30;;;;;;5073504;28;20077;-81
2022/04/16 10:01:47;;;;;;;2.80;2.22;;;11.20;68.30;;;;;;5092131;28;20507;-82
2022/04/16 10:04:21;;;;;;;2.45;1.90;;;11.20;67.40;;;;;;5087693;28;20507;-81
2022/04/16 10:06:47;;;;;;;2.55;1.98;;;11.40;67.90;;;;;;5091585;28;20028;-81
2022/04/16 10:09:17;;;;;;;2.53;1.98;;;11.50;66.90;;;;;;5073307;28;20114;-81
2022/04/16 10:15:00;;;;;;;3.33;1.92;;;11.70;65.80;;;;;;5092170;28;20408;-81
2022/04/16 10:17:35;;;;;;;2.92;1.88;;;11.70;65.30;;;;;;5073290;28;20036;-81
2022/04/16 10:20:11;;;;;;;2.88;2.00;;;11.80;65.40;;;;;;5074087;28;20032;-79
2022/04/16 10:22:38;;;;;;;2.47;1.90;;;12.00;64.80;;;;;;5091509;28;20036;-80
2022/04/16 10:25:04;;;;;;;2.10;1.90;;;12.00;64.20;;;;;;5091880;28;20024;-81
2022/04/16 10:27:37;;;;;;;3.15;2.08;;;12.10;63.80;;;;;;5091980;28;20073;-80
2022/04/16 10:30:11;;;;;;;2.40;2.20;;;12.20;63.70;;;;;;5091556;28;20066;-83
2022/04/16 10:32:42;;;;;;;3.05;2.42;;;12.20;63.70;;;;;;5091812;28;20035;-80
2022/04/16 10:35:15;;;;;;;2.28;2.08;;;12.20;63.30;;;;;;5091551;28;20051;-79
2022/04/16 10:37:42;;;;;;;2.30;2.03;;;12.20;62.70;;;;;;5074095;28;20028;-80
2022/04/16 10:40:18;;;;;;;2.53;2.30;;;12.20;63.10;;;;;;5091054;28;20024;-80
2022/04/16 10:42:48;;;;;;;3.30;2.50;;;12.10;62.10;;;;;;5073559;28;20036;-78
2022/04/16 10:45:14;;;;;;;5.43;2.33;;;12.00;61.60;;;;;;5073008;28;20096;-79
2022/04/16 10:47:41;;;;;;;4.40;2.72;;;11.90;61.60;;;;;;5073384;28;20024;-79
2022/04/16 10:50:14;;;;;;;3.70;2.55;;;11.80;61.20;;;;;;5091108;28;20057;-77
2022/04/16 10:52:40;;;;;;;3.47;2.78;;;11.80;61.40;;;;;;5073563;28;20024;-78
2022/04/16 10:55:06;;;;;;;3.47;2.60;;;11.70;61.40;;;;;;5090998;28;20121;-79
2022/04/16 10:57:33;;;;;;;2.90;2.45;;;11.60;60.30;;;;;;5073306;28;20481;-79
2022/04/16 11:00:13;;;;;;;3.55;2.72;;;11.50;60.50;;;;;;5091613;28;20052;-79
2022/04/16 11:02:39;;;;;;;3.42;3.00;;;11.40;61.40;;;;;;5073393;28;20414;-79
2022/04/16 11:05:07;;;;;;;2.90;2.50;;;11.40;62.60;;;;;;5091699;28;20103;-79
2022/04/16 11:07:35;;;;;;;3.63;2.80;;;11.20;62.50;;;;;;5091827;28;20035;-79
2022/04/16 11:10:03;;;;;;;3.47;2.85;;;11.20;62.50;;;;;;5091520;28;20020;-79
2022/04/16 11:15:24;;;;;;;3.42;2.78;;;11.10;63.50;;;;;;5090344;28;20035;-79
2022/04/16 11:18:01;;;;;;;3.67;2.90;;;11.10;63.70;;;;;;5057338;28;20025;-80
2022/04/16 11:20:27;;;;;;;3.63;2.80;;;11.10;63.40;;;;;;5073216;28;20327;-79
2022/04/16 11:22:56;;;;;;;4.55;3.05;;;11.00;63.10;;;;;;5073142;28;20032;-79
2022/04/16 11:25:23;;;;;;;5.78;3.13;;;11.10;63.50;;;;;;5072014;28;20025;-79
2022/04/16 11:36:09;;;;;;;3.65;2.90;;;11.10;62.40;;;;;;5095065;28;20031;-80
2022/04/16 11:38:36;;;;;;;3.95;2.97;;;11.00;62.00;;;;;;5076775;28;20073;-79
2022/04/16 11:41:04;;;;;;;3.70;3.10;;;11.00;62.00;;;;;;5076893;28;20032;-80
2022/04/16 11:43:31;;;;;;;4.07;3.13;;;10.90;61.80;;;;;;5076073;28;20480;-78
2022/04/16 11:45:59;;;;;;;3.38;3.00;;;10.80;61.80;;;;;;5076600;28;20024;-80
2022/04/16 11:48:24;;;;;;;4.07;3.20;;;10.80;61.90;;;;;;5094229;28;20480;-79
2022/04/16 11:50:50;;;;;;;4.63;3.00;;;10.80;61.50;;;;;;5094245;28;20028;-79
2022/04/16 11:53:16;;;;;;;3.53;3.03;;;10.80;61.80;;;;;;5094037;28;20034;-79
2022/04/16 11:55:50;;;;;;;3.83;3.20;;;10.90;62.10;;;;;;5076432;28;20111;-79
2022/04/16 11:58:16;;;;;;;4.05;2.70;;;11.00;61.80;;;;;;5075793;28;20471;-79
2022/04/16 12:00:50;;;;;;;3.45;2.83;;;11.00;61.00;;;;;;5072860;28;20049;-79
2022/04/16 12:03:17;;;;;;;4.70;2.63;;;11.10;60.90;;;;;;5070020;28;20037;-79
2022/04/16 12:05:43;;;;;;;3.67;3.00;;;11.10;60.50;;;;;;5067680;28;20024;-79
2022/04/16 12:08:10;;;;;;;3.85;3.25;;;11.00;60.10;;;;;;5074282;28;20490;-82
2022/04/16 12:10:37;;;;;;;3.42;2.80;;;11.00;59.80;;;;;;5074278;28;20036;-79
2022/04/16 12:13:10;;;;;;;3.60;3.00;;;11.00;60.00;;;;;;5068568;28;20028;-79
2022/04/16 12:15:44;;;;;;;4.53;3.40;;;10.90;59.40;;;;;;5052667;28;20048;-79
2022/04/16 12:18:11;;;;;;;3.92;3.10;;;10.80;59.60;;;;;;5053883;28;20082;-83
2022/04/16 12:20:46;;;;;;;3.50;3.20;;;10.80;59.80;;;;;;5053945;28;20040;-78
2022/04/16 12:23:22;;;;;;;4.03;3.20;;;10.80;60.30;;;;;;5051929;28;20029;-78
2022/04/16 12:25:48;;;;;;;3.92;2.80;;;10.70;60.20;;;;;;5054170;28;20029;-78
2022/04/16 12:28:15;;;;;;;3.13;2.63;;;10.80;59.50;;;;;;5051981;28;20363;-79
2022/04/16 12:30:49;;;;;;;3.95;2.90;;;10.90;59.60;;;;;;5053778;28;20083;-79
2022/04/16 12:33:15;;;;;;;4.32;3.03;;;10.90;59.00;;;;;;5051738;28;20357;-80
2022/04/16 12:35:45;;;;;;;3.58;2.78;;;11.00;58.60;;;;;;5052483;28;20025;-78
2022/04/16 12:38:15;;;;;;;6.85;3.08;;;11.10;58.30;;;;;;5052904;28;20044;-78
2022/04/16 12:40:41;;;;;;;4.72;2.55;;;11.10;58.30;;;;;;5052255;28;20037;-79
2022/04/16 12:43:07;;;;;;;4.03;2.67;;;11.10;58.00;;;;;;5051923;28;20039;-79
2022/04/16 12:45:33;;;;;;;3.35;2.60;;;11.20;57.90;;;;;;5050859;28;20466;-78
2022/04/16 12:48:00;;;;;;;4.05;3.00;;;11.10;56.20;;;;;;5052151;28;20108;-79
2022/04/16 12:50:27;;;;;;;2.90;2.60;;;11.10;56.30;;;;;;5051477;28;20033;-79
2022/04/16 12:52:53;;;;;;;2.85;2.55;;;11.10;56.30;;;;;;5052121;28;20032;-79
2022/04/16 12:55:19;;;;;;;4.38;2.53;;;11.20;56.40;;;;;;5051500;28;20029;-79
2022/04/16 12:57:45;;;;;;;2.60;2.40;;;11.20;56.30;;;;;;5053143;28;20468;-79
2022/04/16 13:00:13;;;;;;;2.53;2.33;;;11.10;55.20;;;;;;5061547;28;20120;-79
2022/04/16 13:02:43;;;;;;;2.40;2.08;;;11.20;55.50;;;;;;5055021;28;20089;-79
2022/04/16 13:05:10;;;;;;;2.85;2.30;;;11.20;55.10;;;;;;5055039;28;20441;-78
2022/04/16 13:07:36;;;;;;;3.40;2.58;;;11.20;55.00;;;;;;5072631;28;20152;-78
2022/04/16 13:10:03;;;;;;;4.38;2.38;;;11.20;54.90;;;;;;5072995;28;20032;-79
2022/04/16 13:12:29;;;;;;;2.67;2.33;;;11.20;55.00;;;;;;5054446;28;20078;-79
2022/04/16 13:14:55;;;;;;;2.95;2.53;;;11.10;55.10;;;;;;5081556;28;20445;-79
2022/04/16 13:17:20;;;;;;;3.22;2.22;;;11.10;54.20;;;;;;5092591;28;20104;-79
2022/04/16 13:19:46;;;;;;;3.30;2.70;;;11.00;53.70;;;;;;5092981;28;20388;-79
2022/04/16 13:22:12;;;;;;;2.95;2.60;;;11.00;53.70;;;;;;5092956;28;20453;-79